sensor_id;sensor_type;location;lat;lon;timestamp;pressure;altitude;pressure_sealevel;temperature;humidity
23677;BME280;31493;49.058;12.190;2023-09-19T00:00:17;95743.19;;;15.80;100.00
23677;BME280;31493;49.058;12.190;2023-09-19T00:02:46;95744.91;;;15.89;100.00
23677;BME280;31493;49.058;12.190;2023-09-19T00:05:18;95744.09;;;15.89;100.00
23677;BME280;31493;49.058;12.190;2023-09-19T00:07:50;95744.22;;;15.87;100.00
23677;BME280;31493;49.058;12.190;2023-09-19T00:10:20;95747.31;;;15.83;100.00
23677;BME280;31493;49.058;12.190;2023-09-19T00:12:49;95755.97;;;15.83;100.00
23677;BME280;31493;49.058;12.190;2023-09-19T00:15:17;95750.91;;;15.82;100.00
23677;BME280;31493;49.058;12.190;2023-09-19T00:17:44;95740.94;;;15.85;100.00
23677;BME280;31493;49.058;12.190;2023-09-19T00:20:13;95751.72;;;15.82;100.00
23677;BME280;31493;49.058;12.190;2023-09-19T00:22:43;95755.53;;;15.88;100.00
23677;BME280;31493;49.058;12.190;2023-09-19T00:25:10;95759.78;;;15.89;100.00
23677;BME280;31493;49.058;12.190;2023-09-19T00:27:38;95760.81;;;15.78;100.00
23677;BME280;31493;49.058;12.190;2023-09-19T00:30:09;95753.94;;;15.95;100.00
23677;BME280;31493;49.058;12.190;2023-09-19T00:32:40;95760.81;;;15.96;100.00
23677;BME280;31493;49.058;12.190;2023-09-19T00:35:07;95761.84;;;15.85;100.00
23677;BME280;31493;49.058;12.190;2023-09-19T00:37:36;95759.47;;;15.92;100.00
23677;BME280;31493;49.058;12.190;2023-09-19T00:40:06;95754.69;;;15.87;100.00
23677;BME280;31493;49.058;12.190;2023-09-19T00:42:38;95762.41;;;15.89;100.00
23677;BME280;31493;49.058;12.190;2023-09-19T00:45:06;95770.16;;;15.81;100.00
23677;BME280;31493;49.058;12.190;2023-09-19T00:47:36;95757.66;;;15.92;100.00
23677;BME280;31493;49.058;12.190;2023-09-19T00:50:04;95756.19;;;15.90;100.00
23677;BME280;31493;49.058;12.190;2023-09-19T00:52:34;95758.59;;;15.83;100.00
23677;BME280;31493;49.058;12.190;2023-09-19T00:55:03;95759.03;;;15.79;100.00
23677;BME280;31493;49.058;12.190;2023-09-19T00:57:31;95757.81;;;15.73;100.00
23677;BME280;31493;49.058;12.190;2023-09-19T01:00:00;95759.56;;;15.82;100.00
23677;BME280;31493;49.058;12.190;2023-09-19T01:02:31;95762.78;;;15.76;100.00
23677;BME280;31493;49.058;12.190;2023-09-19T01:05:00;95762.78;;;15.76;100.00
23677;BME280;31493;49.058;12.190;2023-09-19T01:07:31;95761.47;;;15.80;100.00
23677;BME280;31493;49.058;12.190;2023-09-19T01:09:59;95758.31;;;16.12;100.00
23677;BME280;31493;49.058;12.190;2023-09-19T01:12:45;95756.78;;;15.84;100.00
23677;BME280;31493;49.058;12.190;2023-09-19T01:15:23;95763.72;;;15.93;100.00
23677;BME280;31493;49.058;12.190;2023-09-19T01:17:57;95758.75;;;15.82;100.00
23677;BME280;31493;49.058;12.190;2023-09-19T01:20:37;95757.66;;;15.92;100.00
23677;BME280;31493;49.058;12.190;2023-09-19T01:23:13;95761.84;;;15.85;100.00
23677;BME280;31493;49.058;12.190;2023-09-19T01:26:05;95754.00;;;15.85;100.00
23677;BME280;31493;49.058;12.190;2023-09-19T01:28:43;95759.91;;;15.87;100.00
23677;BME280;31493;49.058;12.190;2023-09-19T01:31:14;95759.19;;;15.77;100.00
23677;BME280;31493;49.058;12.190;2023-09-19T01:33:54;95767.69;;;15.97;100.00
23677;BME280;31493;49.058;12.190;2023-09-19T01:36:23;95767.47;;;15.73;100.00
23677;BME280;31493;49.058;12.190;2023-09-19T01:38:50;95773.13;;;15.86;100.00
23677;BME280;31493;49.058;12.190;2023-09-19T01:41:23;95767.84;;;15.78;100.00
23677;BME280;31493;49.058;12.190;2023-09-19T01:43:53;95764.84;;;15.73;100.00
23677;BME280;31493;49.058;12.190;2023-09-19T01:46:24;95771.81;;;15.82;100.00
23677;BME280;31493;49.058;12.190;2023-09-19T01:48:58;95764.91;;;15.99;100.00
23677;BME280;31493;49.058;12.190;2023-09-19T01:51:34;95774.88;;;15.77;100.00
23677;BME280;31493;49.058;12.190;2023-09-19T01:54:08;95791.28;;;15.87;100.00
23677;BME280;31493;49.058;12.190;2023-09-19T01:56:40;95791.53;;;15.76;100.00
23677;BME280;31493;49.058;12.190;2023-09-19T01:59:11;95799.44;;;15.84;100.00
23677;BME280;31493;49.058;12.190;2023-09-19T02:01:42;95781.50;;;15.89;100.00
23677;BME280;31493;49.058;12.190;2023-09-19T02:04:11;95790.41;;;15.69;100.00
23677;BME280;31493;49.058;12.190;2023-09-19T02:06:39;95803.03;;;15.56;100.00
23677;BME280;31493;49.058;12.190;2023-09-19T02:09:06;95793.19;;;15.67;100.00
23677;BME280;31493;49.058;12.190;2023-09-19T02:11:34;95796.13;;;15.64;100.00
23677;BME280;31493;49.058;12.190;2023-09-19T02:14:02;95795.97;;;15.66;100.00
23677;BME280;31493;49.058;12.190;2023-09-19T02:16:30;95796.09;;;15.47;100.00
23677;BME280;31493;49.058;12.190;2023-09-19T02:18:58;95803.25;;;15.62;100.00
23677;BME280;31493;49.058;12.190;2023-09-19T02:21:26;95797.13;;;15.54;100.00
23677;BME280;31493;49.058;12.190;2023-09-19T02:23:55;95803.94;;;15.47;100.00
23677;BME280;31493;49.058;12.190;2023-09-19T02:26:22;95794.22;;;15.57;100.00
23677;BME280;31493;49.058;12.190;2023-09-19T02:28:53;95797.28;;;15.52;100.00
23677;BME280;31493;49.058;12.190;2023-09-19T02:31:20;95784.59;;;15.39;100.00
23677;BME280;31493;49.058;12.190;2023-09-19T02:33:47;95794.13;;;15.49;100.00
23677;BME280;31493;49.058;12.190;2023-09-19T02:36:15;95788.84;;;15.41;100.00
23677;BME280;31493;49.058;12.190;2023-09-19T02:38:43;95794.22;;;15.39;100.00
23677;BME280;31493;49.058;12.190;2023-09-19T02:41:10;95806.16;;;15.42;100.00
23677;BME280;31493;49.058;12.190;2023-09-19T02:43:37;95799.16;;;15.32;100.00
23677;BME280;31493;49.058;12.190;2023-09-19T02:46:05;95796.03;;;15.29;100.00
23677;BME280;31493;49.058;12.190;2023-09-19T02:48:32;95801.13;;;15.30;100.00
23677;BME280;31493;49.058;12.190;2023-09-19T02:51:00;95795.31;;;15.36;100.00
23677;BME280;31493;49.058;12.190;2023-09-19T02:53:29;95805.47;;;15.39;100.00
23677;BME280;31493;49.058;12.190;2023-09-19T02:55:56;95801.91;;;15.41;100.00
23677;BME280;31493;49.058;12.190;2023-09-19T02:58:25;95799.94;;;15.43;100.00
23677;BME280;31493;49.058;12.190;2023-09-19T03:00:53;95808.59;;;15.43;100.00
23677;BME280;31493;49.058;12.190;2023-09-19T03:03:20;95803.56;;;15.32;100.00
23677;BME280;31493;49.058;12.190;2023-09-19T03:05:48;95819.41;;;15.30;100.00
23677;BME280;31493;49.058;12.190;2023-09-19T03:08:17;95821.84;;;15.32;100.00
23677;BME280;31493;49.058;12.190;2023-09-19T03:10:47;95820.34;;;15.39;100.00
23677;BME280;31493;49.058;12.190;2023-09-19T03:13:14;95832.19;;;15.33;100.00
23677;BME280;31493;49.058;12.190;2023-09-19T03:15:41;95821.00;;;15.41;100.00
23677;BME280;31493;49.058;12.190;2023-09-19T03:18:12;95816.47;;;15.61;100.00
23677;BME280;31493;49.058;12.190;2023-09-19T03:20:39;95835.31;;;15.37;100.00
23677;BME280;31493;49.058;12.190;2023-09-19T03:23:06;95833.41;;;15.39;100.00
23677;BME280;31493;49.058;12.190;2023-09-19T03:25:34;95832.84;;;15.35;100.00
23677;BME280;31493;49.058;12.190;2023-09-19T03:28:03;95839.19;;;15.33;100.00
23677;BME280;31493;49.058;12.190;2023-09-19T03:30:32;95851.88;;;15.28;100.00
23677;BME280;31493;49.058;12.190;2023-09-19T03:33:00;95842.50;;;15.25;100.00
23677;BME280;31493;49.058;12.190;2023-09-19T03:35:27;95847.63;;;15.27;100.00
23677;BME280;31493;49.058;12.190;2023-09-19T03:37:55;95838.25;;;15.24;100.00
23677;BME280;31493;49.058;12.190;2023-09-19T03:40:22;95826.31;;;15.22;100.00
23677;BME280;31493;49.058;12.190;2023-09-19T03:42:49;95834.97;;;15.22;100.00
23677;BME280;31493;49.058;12.190;2023-09-19T03:45:18;95835.06;;;15.30;100.00
23677;BME280;31493;49.058;12.190;2023-09-19T03:47:45;95851.41;;;15.32;100.00
23677;BME280;31493;49.058;12.190;2023-09-19T03:50:13;95836.72;;;15.31;100.00
23677;BME280;31493;49.058;12.190;2023-09-19T03:52:43;95839.38;;;15.22;100.00
23677;BME280;31493;49.058;12.190;2023-09-19T03:55:10;95844.31;;;15.25;100.00
23677;BME280;31493;49.058;12.190;2023-09-19T03:57:37;95849.09;;;15.29;100.00
23677;BME280;31493;49.058;12.190;2023-09-19T04:00:05;95847.97;;;15.32;100.00
23677;BME280;31493;49.058;12.190;2023-09-19T04:02:38;95852.50;;;15.39;100.00
23677;BME280;31493;49.058;12.190;2023-09-19T04:05:07;95855.53;;;15.35;100.00
23677;BME280;31493;49.058;12.190;2023-09-19T04:07:35;95845.38;;;15.32;100.00
23677;BME280;31493;49.058;12.190;2023-09-19T04:10:02;95863.91;;;15.38;100.00
23677;BME280;31493;49.058;12.190;2023-09-19T04:12:29;95864.63;;;15.31;100.00
23677;BME280;31493;49.058;12.190;2023-09-19T04:14:56;95851.13;;;15.35;100.00
23677;BME280;31493;49.058;12.190;2023-09-19T04:17:23;95862.00;;;15.31;100.00
23677;BME280;31493;49.058;12.190;2023-09-19T04:19:51;95861.16;;;15.40;100.00
23677;BME280;31493;49.058;12.190;2023-09-19T04:22:19;95854.69;;;15.62;100.00
23677;BME280;31493;49.058;12.190;2023-09-19T04:24:46;95866.16;;;15.33;100.00
23677;BME280;31493;49.058;12.190;2023-09-19T04:27:13;95868.44;;;15.36;100.00
23677;BME280;31493;49.058;12.190;2023-09-19T04:29:40;95860.63;;;15.36;100.00
23677;BME280;31493;49.058;12.190;2023-09-19T04:32:08;95866.19;;;15.51;100.00
23677;BME280;31493;49.058;12.190;2023-09-19T04:34:35;95875.44;;;15.46;100.00
23677;BME280;31493;49.058;12.190;2023-09-19T04:37:05;95875.72;;;15.43;100.00
23677;BME280;31493;49.058;12.190;2023-09-19T04:39:32;95865.44;;;15.31;100.00
23677;BME280;31493;49.058;12.190;2023-09-19T04:41:59;95867.53;;;15.28;100.00
23677;BME280;31493;49.058;12.190;2023-09-19T04:44:26;95869.84;;;15.31;100.00
23677;BME280;31493;49.058;12.190;2023-09-19T04:46:53;95865.59;;;15.30;100.00
23677;BME280;31493;49.058;12.190;2023-09-19T04:49:21;95879.31;;;15.32;100.00
23677;BME280;31493;49.058;12.190;2023-09-19T04:51:48;95864.34;;;15.34;100.00
23677;BME280;31493;49.058;12.190;2023-09-19T04:54:16;95869.84;;;15.31;100.00
23677;BME280;31493;49.058;12.190;2023-09-19T04:56:43;95886.81;;;15.54;100.00
23677;BME280;31493;49.058;12.190;2023-09-19T04:59:10;95885.81;;;15.28;100.00
23677;BME280;31493;49.058;12.190;2023-09-19T05:01:37;95890.50;;;15.24;100.00
23677;BME280;31493;49.058;12.190;2023-09-19T05:04:04;95889.41;;;15.27;100.00
23677;BME280;31493;49.058;12.190;2023-09-19T05:06:32;95894.06;;;15.33;100.00
23677;BME280;31493;49.058;12.190;2023-09-19T05:09:01;95895.56;;;15.35;100.00
23677;BME280;31493;49.058;12.190;2023-09-19T05:11:32;95892.34;;;15.42;100.00
23677;BME280;31493;49.058;12.190;2023-09-19T05:13:59;95897.84;;;15.38;100.00
23677;BME280;31493;49.058;12.190;2023-09-19T05:16:29;95906.41;;;15.41;100.00
23677;BME280;31493;49.058;12.190;2023-09-19T05:18:57;95899.38;;;15.41;100.00
23677;BME280;31493;49.058;12.190;2023-09-19T05:21:25;95904.22;;;15.36;100.00
23677;BME280;31493;49.058;12.190;2023-09-19T05:23:54;95901.34;;;15.57;100.00
23677;BME280;31493;49.058;12.190;2023-09-19T05:26:21;95901.75;;;15.34;100.00
23677;BME280;31493;49.058;12.190;2023-09-19T05:28:49;95896.09;;;15.39;100.00
23677;BME280;31493;49.058;12.190;2023-09-19T05:31:16;95896.78;;;15.31;100.00
23677;BME280;31493;49.058;12.190;2023-09-19T05:33:44;95920.13;;;15.43;100.00
23677;BME280;31493;49.058;12.190;2023-09-19T05:36:11;95911.72;;;15.49;100.00
23677;BME280;31493;49.058;12.190;2023-09-19T05:38:38;95915.97;;;15.50;100.00
23677;BME280;31493;49.058;12.190;2023-09-19T05:41:06;95913.66;;;15.47;100.00
23677;BME280;31493;49.058;12.190;2023-09-19T05:43:33;95914.38;;;15.39;100.00
23677;BME280;31493;49.058;12.190;2023-09-19T05:46:04;95904.88;;;15.38;100.00
23677;BME280;31493;49.058;12.190;2023-09-19T05:48:31;95916.75;;;15.60;100.00
23677;BME280;31493;49.058;12.190;2023-09-19T05:50:58;95918.38;;;15.33;100.00
23677;BME280;31493;49.058;12.190;2023-09-19T05:53:27;95910.25;;;15.36;100.00
23677;BME280;31493;49.058;12.190;2023-09-19T05:55:54;95905.91;;;15.18;100.00
23677;BME280;31493;49.058;12.190;2023-09-19T05:58:21;95917.84;;;15.20;100.00
23677;BME280;31493;49.058;12.190;2023-09-19T06:00:48;95920.47;;;15.20;100.00
23677;BME280;31493;49.058;12.190;2023-09-19T06:03:17;95924.84;;;15.29;100.00
23677;BME280;31493;49.058;12.190;2023-09-19T06:05:44;95921.56;;;15.27;100.00
23677;BME280;31493;49.058;12.190;2023-09-19T06:08:12;95927.78;;;15.17;100.00
23677;BME280;31493;49.058;12.190;2023-09-19T06:10:39;95937.50;;;15.24;100.00
23677;BME280;31493;49.058;12.190;2023-09-19T06:13:06;95934.75;;;15.26;100.00
23677;BME280;31493;49.058;12.190;2023-09-19T06:15:35;95932.53;;;15.31;100.00
23677;BME280;31493;49.058;12.190;2023-09-19T06:18:03;95937.34;;;15.35;100.00
23677;BME280;31493;49.058;12.190;2023-09-19T06:20:32;95944.78;;;15.30;100.00
23677;BME280;31493;49.058;12.190;2023-09-19T06:23:00;95948.63;;;15.36;100.00
23677;BME280;31493;49.058;12.190;2023-09-19T06:25:28;95945.69;;;15.49;100.00
23677;BME280;31493;49.058;12.190;2023-09-19T06:27:55;95949.28;;;15.38;100.00
23677;BME280;31493;49.058;12.190;2023-09-19T06:30:23;95952.16;;;15.45;100.00
23677;BME280;31493;49.058;12.190;2023-09-19T06:32:55;95958.81;;;15.76;100.00
23677;BME280;31493;49.058;12.190;2023-09-19T06:35:23;95958.41;;;15.61;100.00
23677;BME280;31493;49.058;12.190;2023-09-19T06:37:53;95954.00;;;15.72;100.00
23677;BME280;31493;49.058;12.190;2023-09-19T06:40:20;95965.78;;;15.85;100.00
23677;BME280;31493;49.058;12.190;2023-09-19T06:42:50;95974.09;;;15.99;100.00
23677;BME280;31493;49.058;12.190;2023-09-19T06:45:18;95976.47;;;15.92;100.00
23677;BME280;31493;49.058;12.190;2023-09-19T06:47:48;95971.78;;;15.96;100.00
23677;BME280;31493;49.058;12.190;2023-09-19T06:50:16;95989.63;;;16.00;100.00
23677;BME280;31493;49.058;12.190;2023-09-19T06:52:45;95979.56;;;16.05;100.00
23677;BME280;31493;49.058;12.190;2023-09-19T06:55:13;95995.56;;;16.02;100.00
23677;BME280;31493;49.058;12.190;2023-09-19T06:57:42;95986.16;;;16.09;100.00
23677;BME280;31493;49.058;12.190;2023-09-19T07:00:10;95979.09;;;16.19;100.00
23677;BME280;31493;49.058;12.190;2023-09-19T07:02:44;95988.16;;;16.25;100.00
23677;BME280;31493;49.058;12.190;2023-09-19T07:05:11;95980.97;;;16.27;100.00
23677;BME280;31493;49.058;12.190;2023-09-19T07:07:38;95988.34;;;16.14;100.00
23677;BME280;31493;49.058;12.190;2023-09-19T07:10:06;95988.97;;;16.26;100.00
23677;BME280;31493;49.058;12.190;2023-09-19T07:12:35;95986.34;;;16.26;100.00
23677;BME280;31493;49.058;12.190;2023-09-19T07:15:02;95996.22;;;16.32;100.00
23677;BME280;31493;49.058;12.190;2023-09-19T07:17:31;95992.91;;;16.30;100.00
23677;BME280;31493;49.058;12.190;2023-09-19T07:19:58;95993.06;;;16.28;100.00
23677;BME280;31493;49.058;12.190;2023-09-19T07:22:26;95994.72;;;16.29;100.00
23677;BME280;31493;49.058;12.190;2023-09-19T07:24:53;95996.06;;;16.33;100.00
23677;BME280;31493;49.058;12.190;2023-09-19T07:27:20;95996.00;;;16.61;100.00
23677;BME280;31493;49.058;12.190;2023-09-19T07:29:49;95983.31;;;16.66;100.00
23677;BME280;31493;49.058;12.190;2023-09-19T07:32:16;95995.34;;;16.59;100.00
23677;BME280;31493;49.058;12.190;2023-09-19T07:34:43;95981.97;;;16.62;100.00
23677;BME280;31493;49.058;12.190;2023-09-19T07:37:10;96004.41;;;16.64;99.91
23677;BME280;31493;49.058;12.190;2023-09-19T07:39:39;96005.53;;;16.80;99.77
23677;BME280;31493;49.058;12.190;2023-09-19T07:42:07;96001.38;;;16.87;98.02
23677;BME280;31493;49.058;12.190;2023-09-19T07:44:35;96006.06;;;17.01;98.99
23677;BME280;31493;49.058;12.190;2023-09-19T07:47:03;96004.09;;;17.21;99.11
23677;BME280;31493;49.058;12.190;2023-09-19T07:49:30;96011.06;;;17.12;97.42
23677;BME280;31493;49.058;12.190;2023-09-19T07:51:57;96006.88;;;17.19;97.69
23677;BME280;31493;49.058;12.190;2023-09-19T07:54:24;96023.25;;;17.21;96.04
23677;BME280;31493;49.058;12.190;2023-09-19T07:56:52;96030.88;;;17.33;96.21
23677;BME280;31493;49.058;12.190;2023-09-19T07:59:19;96023.47;;;17.28;95.05
23677;BME280;31493;49.058;12.190;2023-09-19T08:01:46;96027.00;;;17.19;93.88
23677;BME280;31493;49.058;12.190;2023-09-19T08:04:16;96028.19;;;17.24;94.33
23677;BME280;31493;49.058;12.190;2023-09-19T08:06:43;96024.88;;;17.22;93.87
23677;BME280;31493;49.058;12.190;2023-09-19T08:09:10;96028.50;;;17.21;94.33
23677;BME280;31493;49.058;12.190;2023-09-19T08:11:40;96021.16;;;17.25;93.39
23677;BME280;31493;49.058;12.190;2023-09-19T08:14:07;96026.63;;;17.32;92.69
23677;BME280;31493;49.058;12.190;2023-09-19T08:16:34;96035.47;;;17.13;93.16
23677;BME280;31493;49.058;12.190;2023-09-19T08:19:01;96042.34;;;17.14;92.75
23677;BME280;31493;49.058;12.190;2023-09-19T08:21:29;96047.22;;;17.09;94.10
23677;BME280;31493;49.058;12.190;2023-09-19T08:23:57;96040.13;;;17.01;93.61
23677;BME280;31493;49.058;12.190;2023-09-19T08:26:24;96044.91;;;17.23;94.22
23677;BME280;31493;49.058;12.190;2023-09-19T08:28:52;96043.31;;;17.31;92.15
23677;BME280;31493;49.058;12.190;2023-09-19T08:31:21;96041.59;;;17.47;90.44
23677;BME280;31493;49.058;12.190;2023-09-19T08:33:48;96043.81;;;17.34;89.13
23677;BME280;31493;49.058;12.190;2023-09-19T08:36:15;96037.97;;;17.40;90.60
23677;BME280;31493;49.058;12.190;2023-09-19T08:38:43;96037.13;;;17.84;88.35
23677;BME280;31493;49.058;12.190;2023-09-19T08:41:10;96038.88;;;17.75;87.63
23677;BME280;31493;49.058;12.190;2023-09-19T08:43:38;96041.19;;;17.78;87.86
23677;BME280;31493;49.058;12.190;2023-09-19T08:46:09;96047.19;;;17.96;88.07
23677;BME280;31493;49.058;12.190;2023-09-19T08:48:39;96043.94;;;18.02;86.88
23677;BME280;31493;49.058;12.190;2023-09-19T08:51:18;96050.03;;;18.03;86.35
23677;BME280;31493;49.058;12.190;2023-09-19T08:53:52;96047.91;;;18.06;85.50
23677;BME280;31493;49.058;12.190;2023-09-19T08:56:22;96043.75;;;17.70;84.34
23677;BME280;31493;49.058;12.190;2023-09-19T08:58:55;96047.28;;;17.61;85.09
23677;BME280;31493;49.058;12.190;2023-09-19T09:01:27;96051.47;;;17.71;85.89
23677;BME280;31493;49.058;12.190;2023-09-19T09:03:55;96050.00;;;17.51;86.25
23677;BME280;31493;49.058;12.190;2023-09-19T09:06:24;96055.81;;;17.63;85.38
23677;BME280;31493;49.058;12.190;2023-09-19T09:08:52;96054.03;;;17.89;85.93
23677;BME280;31493;49.058;12.190;2023-09-19T09:11:20;96060.56;;;18.11;85.43
23677;BME280;31493;49.058;12.190;2023-09-19T09:13:48;96056.75;;;18.05;86.20
23677;BME280;31493;49.058;12.190;2023-09-19T09:16:16;96066.72;;;17.68;87.01
23677;BME280;31493;49.058;12.190;2023-09-19T09:18:44;96051.41;;;17.63;87.16
23677;BME280;31493;49.058;12.190;2023-09-19T09:21:12;96053.50;;;17.60;87.72
23677;BME280;31493;49.058;12.190;2023-09-19T09:23:41;96062.41;;;17.23;86.90
23677;BME280;31493;49.058;12.190;2023-09-19T09:26:09;96059.63;;;17.42;86.80
23677;BME280;31493;49.058;12.190;2023-09-19T09:28:44;96065.34;;;17.46;86.09
23677;BME280;31493;49.058;12.190;2023-09-19T09:31:22;96061.88;;;17.63;85.23
23677;BME280;31493;49.058;12.190;2023-09-19T09:33:53;96048.13;;;17.61;82.62
23677;BME280;31493;49.058;12.190;2023-09-19T09:36:34;96060.84;;;17.56;79.66
23677;BME280;31493;49.058;12.190;2023-09-19T09:39:02;96072.94;;;17.49;78.97
23677;BME280;31493;49.058;12.190;2023-09-19T09:41:43;96066.97;;;17.65;78.69
23677;BME280;31493;49.058;12.190;2023-09-19T09:44:13;96070.56;;;17.64;76.91
23677;BME280;31493;49.058;12.190;2023-09-19T09:46:44;96062.66;;;17.56;76.43
23677;BME280;31493;49.058;12.190;2023-09-19T09:49:47;96064.34;;;17.21;76.94
23677;BME280;31493;49.058;12.190;2023-09-19T09:52:20;96074.84;;;17.21;76.91
23677;BME280;31493;49.058;12.190;2023-09-19T09:54:59;96080.50;;;17.34;78.61
23677;BME280;31493;49.058;12.190;2023-09-19T09:57:28;96091.91;;;17.07;77.21
23677;BME280;31493;49.058;12.190;2023-09-19T09:59:57;96083.44;;;17.13;77.84
23677;BME280;31493;49.058;12.190;2023-09-19T10:02:26;96084.28;;;17.14;77.60
23677;BME280;31493;49.058;12.190;2023-09-19T10:04:56;96102.44;;;16.97;76.35
23677;BME280;31493;49.058;12.190;2023-09-19T10:07:41;96087.94;;;17.03;76.24
23677;BME280;31493;49.058;12.190;2023-09-19T10:10:15;96100.03;;;17.04;76.79
23677;BME280;31493;49.058;12.190;2023-09-19T10:12:58;96092.78;;;17.16;75.85
23677;BME280;31493;49.058;12.190;2023-09-19T10:15:32;96087.47;;;17.25;76.22
23677;BME280;31493;49.058;12.190;2023-09-19T10:18:00;96097.69;;;17.11;75.92
23677;BME280;31493;49.058;12.190;2023-09-19T10:20:28;96090.16;;;17.16;77.61
23677;BME280;31493;49.058;12.190;2023-09-19T10:23:06;96082.59;;;17.48;76.86
23677;BME280;31493;49.058;12.190;2023-09-19T10:25:39;96084.47;;;17.38;75.14
23677;BME280;31493;49.058;12.190;2023-09-19T10:28:08;96087.44;;;17.79;75.46
23677;BME280;31493;49.058;12.190;2023-09-19T10:30:38;96074.66;;;17.40;74.49
23677;BME280;31493;49.058;12.190;2023-09-19T10:33:10;96086.75;;;17.59;73.92
23677;BME280;31493;49.058;12.190;2023-09-19T10:35:39;96083.00;;;17.79;73.99
23677;BME280;31493;49.058;12.190;2023-09-19T10:38:09;96092.34;;;17.82;72.23
23677;BME280;31493;49.058;12.190;2023-09-19T10:40:38;96087.41;;;18.05;72.77
23677;BME280;31493;49.058;12.190;2023-09-19T10:43:12;96094.88;;;18.26;73.28
23677;BME280;31493;49.058;12.190;2023-09-19T10:45:44;96087.59;;;18.12;72.77
23677;BME280;31493;49.058;12.190;2023-09-19T10:48:15;96088.47;;;18.20;73.42
23677;BME280;31493;49.058;12.190;2023-09-19T10:50:47;96085.81;;;18.46;73.84
23677;BME280;31493;49.058;12.190;2023-09-19T10:53:16;96097.13;;;18.89;72.69
23677;BME280;31493;49.058;12.190;2023-09-19T10:55:49;96079.41;;;19.07;72.89
23677;BME280;31493;49.058;12.190;2023-09-19T10:58:26;96075.34;;;19.46;70.87
23677;BME280;31493;49.058;12.190;2023-09-19T11:00:55;96079.59;;;19.22;69.30
23677;BME280;31493;49.058;12.190;2023-09-19T11:03:27;96086.66;;;19.22;70.87
23677;BME280;31493;49.058;12.190;2023-09-19T11:06:07;96092.16;;;18.78;70.77
23677;BME280;31493;49.058;12.190;2023-09-19T11:08:52;96082.06;;;19.16;71.55
23677;BME280;31493;49.058;12.190;2023-09-19T11:11:47;96086.63;;;19.05;70.42
23677;BME280;31493;49.058;12.190;2023-09-19T11:14:30;96084.50;;;19.25;70.55
23677;BME280;31493;49.058;12.190;2023-09-19T11:20:23;96082.06;;;19.40;71.38
23677;BME280;31493;49.058;12.190;2023-09-19T11:23:20;96082.72;;;19.66;70.17
23677;BME280;31493;49.058;12.190;2023-09-19T11:25:53;96083.19;;;19.29;69.91
23677;BME280;31493;49.058;12.190;2023-09-19T11:28:33;96084.53;;;19.74;69.44
23677;BME280;31493;49.058;12.190;2023-09-19T11:34:42;96090.22;;;20.02;69.01
23677;BME280;31493;49.058;12.190;2023-09-19T11:40:37;96094.31;;;20.13;68.33
23677;BME280;31493;49.058;12.190;2023-09-19T11:43:30;96092.28;;;19.51;67.93
23677;BME280;31493;49.058;12.190;2023-09-19T11:46:07;96095.84;;;19.09;68.54
23677;BME280;31493;49.058;12.190;2023-09-19T11:48:40;96094.69;;;19.36;68.88
23677;BME280;31493;49.058;12.190;2023-09-19T11:51:12;96089.94;;;19.24;69.99
23677;BME280;31493;49.058;12.190;2023-09-19T11:53:46;96077.47;;;19.34;68.96
23677;BME280;31493;49.058;12.190;2023-09-19T11:56:16;96075.97;;;19.72;68.46
23677;BME280;31493;49.058;12.190;2023-09-19T11:58:43;96081.63;;;20.16;68.23
23677;BME280;31493;49.058;12.190;2023-09-19T12:01:14;96087.47;;;19.96;66.77
23677;BME280;31493;49.058;12.190;2023-09-19T12:03:46;96087.97;;;19.66;67.83
23677;BME280;31493;49.058;12.190;2023-09-19T12:06:14;96083.84;;;19.80;67.53
23677;BME280;31493;49.058;12.190;2023-09-19T12:08:42;96080.53;;;20.03;66.61
23677;BME280;31493;49.058;12.190;2023-09-19T12:11:13;96079.88;;;20.01;66.09
23677;BME280;31493;49.058;12.190;2023-09-19T12:13:42;96075.63;;;20.00;64.93
23677;BME280;31493;49.058;12.190;2023-09-19T12:16:13;96080.63;;;20.34;66.98
23677;BME280;31493;49.058;12.190;2023-09-19T12:18:42;96081.13;;;20.37;64.72
23677;BME280;31493;49.058;12.190;2023-09-19T12:21:23;96074.16;;;20.44;63.70
23677;BME280;31493;49.058;12.190;2023-09-19T12:24:06;96086.59;;;20.90;62.53
23677;BME280;31493;49.058;12.190;2023-09-19T12:26:39;96088.69;;;20.71;61.79
23677;BME280;31493;49.058;12.190;2023-09-19T12:29:13;96089.28;;;20.82;61.41
23677;BME280;31493;49.058;12.190;2023-09-19T12:31:50;96076.38;;;20.95;61.06
23677;BME280;31493;49.058;12.190;2023-09-19T12:34:20;96082.13;;;20.67;60.46
23677;BME280;31493;49.058;12.190;2023-09-19T12:36:48;96078.19;;;20.63;61.42
23677;BME280;31493;49.058;12.190;2023-09-19T12:39:24;96078.50;;;20.29;61.65
23677;BME280;31493;49.058;12.190;2023-09-19T12:41:52;96063.09;;;20.57;61.86
23677;BME280;31493;49.058;12.190;2023-09-19T12:44:20;96062.88;;;20.90;61.33
23677;BME280;31493;49.058;12.190;2023-09-19T12:46:51;96050.16;;;21.24;58.68
23677;BME280;31493;49.058;12.190;2023-09-19T12:49:20;96051.38;;;21.74;56.37
23677;BME280;31493;49.058;12.190;2023-09-19T12:51:49;96040.97;;;21.58;58.78
23677;BME280;31493;49.058;12.190;2023-09-19T12:54:18;96044.72;;;21.64;57.56
23677;BME280;31493;49.058;12.190;2023-09-19T12:56:46;96042.78;;;21.20;58.39
23677;BME280;31493;49.058;12.190;2023-09-19T12:59:14;96057.88;;;20.72;61.78
23677;BME280;31493;49.058;12.190;2023-09-19T13:01:43;96051.22;;;20.84;60.14
23677;BME280;31493;49.058;12.190;2023-09-19T13:04:17;96066.00;;;20.31;60.25
23677;BME280;31493;49.058;12.190;2023-09-19T13:06:52;96068.84;;;20.84;60.60